Details From SBKP - Sao Paulo Viracopos
To SBEG - Eduardo Gomes
Flight Number -
Tags decoded
Created
Modified
Stats Distance 1,415 nm / 2,621 km
Max Altitude 0 ft / 0 m
Waypoints 4
Social Downloads 1
Likes 0
Share VATSIM

Download

Looking for another format? Having issues loading an existing format? Contact us
Advertisement - Login to hide

Notes

Requested: SBKP RCL UM417 SAMAR POPTI UM417 KOKMU SBEG Unmatched points: UM417 POPTI UM417 KOKMU

Route

SBKP RCL SAMAR SBEG

ID Type Via Altitude Latitude Longitude Leg Dist Tot Dist Heading (true) Name
O SBKP APT - 0 ft / 0 m -23.00738˚ -47.13452˚ - 0 nm - Sao Paulo Viracopos
RCL NDB - 0 ft / 0 m -22.43017˚ -47.56250˚ 41 nm 41 nm 326° / 326° RIO CLARO NDB
SAMAR FIX - 0 ft / 0 m -14.71300˚ -53.11942˚ 560 nm 602 nm 325° / 327° -
O SBEG APT - 0 ft / 0 m -3.03861˚ -60.04972˚ 812 nm 1415 nm 329° / 330° Eduardo Gomes

Altitude Profile

Advertisement - Login to hide

Weather


0- 5 10 15 20 25 30 35+ Temperature / ° C

Clouds and Precipitation
Forecast for 2017-12-18 00:00 UTC. Updated 2 hours ago

Ground ~20,000 ft ~40,000 ft Winds

SBKP

Details ICAO SBKP (VCP)
Name Sao Paulo Viracopos
Region Brazil
Timezone America/Sao_Paulo (UTC-2.0)
Stats Elevation 2,170 ft / 661 m (AMSL)
Location -23.007383° -47.134522°
Runways 1
Magnetic Variation 21.196° W

METAR

SBKP 180100Z 34010KT 9999 TS SCT048 FEW052CB SCT070 26/15 Q1017

Decode

TAF

TAF SBKP 172119Z 1800/1824 07005KT CAVOK TN21/1809Z TX32/1817Z BECMG 1810/1812 33005KT BECMG 1814/1816 24010KT SCT040 TEMPO 1818/1824 18015KT 6000 TSRA BKN030 FEW045CB RMK PGN

Decode

Departure Runways

ID Width Length Bearing (true) Bearing (mag) Surface Threshold Offset Overrun Length
15 148 ft / 45 m 10,639 ft / 3,243 m 127.91° 149.11° Asphalt 0 ft / 0 m 205 ft / 62 m
33 148 ft / 45 m 10,639 ft / 3,243 m 307.90° 329.10° Asphalt 0 ft / 0 m 205 ft / 62 m

SBEG

Details ICAO SBEG (MAO)
Name Eduardo Gomes
Region Brazil
Timezone America/Manaus (UTC-4.0)
Stats Elevation 264 ft / 80 m (AMSL)
Location -3.038611° -60.049723°
Runways 1
Magnetic Variation 15.762° W

METAR

SBEG 180100Z 10010KT 9999 BKN015 27/24 Q1012

Decode

TAF

TAF SBEG 172200Z 1800/1824 00000KT CAVOK TN24/1806Z TX29/1818Z BECMG 1810/1812 06005KT SCT010 BECMG 1815/1817 09005KT SCT020 FEW025TCU PROB30 TEMPO 1817/1820 3000 TSRA BKN015 FEW025CB BECMG 1821/1823 00000KT FEW015 RMK PEH

Decode

Destination Runways

ID Width Length Bearing (true) Bearing (mag) Surface Threshold Offset Overrun Length
10 148 ft / 45 m 8,867 ft / 2,703 m 90.13° 105.89° Asphalt 0 ft / 0 m 215 ft / 66 m
28 148 ft / 45 m 8,867 ft / 2,703 m 270.13° 285.89° Asphalt 0 ft / 0 m 250 ft / 76 m

Approach Navaids

Runway Type Ident Frequency Range Bearing (true) Bearing (mag) Slope Elevation
10 Localiser IEG 110.30 MHz 18 nm / 33 km 90.55° 106.31° - 275 ft / 84 m (AMSL)
10 Glidescope IEG 110.30 MHz 10 nm / 19 km 90.13° 105.89° 3.04° 275 ft / 84 m (AMSL)
10 DME IEG 110.30 MHz 18 nm / 33 km - - - 264 ft / 80 m (AMSL)

Popular Alternatives